Time,TemperatureF,DewpointF,PressureIn,WindDirection,WindDirectionDegrees,WindSpeedMPH,WindSpeedGustMPH,Humidity,HourlyPrecipIn,Conditions,Clouds,dailyrainin,SoftwareType,DateUTC
2013-11-16 00:01:00,58.8,47.6,29.83,SE,138,0.0,0.0,66,0.00,,,0.00,WUHU216WMR968SP,2013-11-16 08:01:00,
2013-11-16 00:06:00,58.6,47.4,29.83,SE,138,0.0,0.0,66,0.00,,,0.00,WUHU216WMR968SP,2013-11-16 08:06:00,
2013-11-16 00:11:00,58.5,47.3,29.83,SE,138,0.0,0.0,66,0.00,,,0.00,WUHU216WMR968SP,2013-11-16 08:11:00,
2013-11-16 00:16:00,58.3,47.1,29.83,SE,138,0.0,0.0,66,0.00,,,0.00,WUHU216WMR968SP,2013-11-16 08:16:00,
2013-11-16 00:21:00,58.1,46.9,29.83,SE,138,0.0,0.0,66,0.00,,,0.00,WUHU216WMR968SP,2013-11-16 08:21:00,
2013-11-16 00:26:00,57.9,46.7,29.83,SE,138,0.0,0.0,66,0.00,,,0.00,WUHU216WMR968SP,2013-11-16 08:26:00,
2013-11-16 00:31:00,57.7,47.0,29.83,SE,138,0.0,0.0,67,0.00,,,0.00,WUHU216WMR968SP,2013-11-16 08:31:00,
2013-11-16 00:36:00,57.7,47.0,29.83,SE,138,0.0,0.0,67,0.00,,,0.00,WUHU216WMR968SP,2013-11-16 08:36:00,
2013-11-16 00:41:00,57.6,46.9,29.86,SE,138,0.0,0.0,67,0.00,,,0.00,WUHU216WMR968SP,2013-11-16 08:41:00,
2013-11-16 00:46:00,57.7,47.3,29.86,SE,138,0.0,0.0,68,0.00,,,0.00,WUHU216WMR968SP,2013-11-16 08:46:00,
2013-11-16 00:51:00,57.9,47.5,29.86,SE,138,0.0,0.0,68,0.00,,,0.00,WUHU216WMR968SP,2013-11-16 08:51:00,
2013-11-16 00:56:00,58.3,47.9,29.86,SE,138,0.0,0.0,68,0.00,,,0.00,WUHU216WMR968SP,2013-11-16 08:56:00,
2013-11-16 01:01:00,58.5,47.7,29.86,SE,138,0.0,0.0,67,0.00,,,0.00,WUHU216WMR968SP,2013-11-16 09:01:00,
2013-11-16 01:06:00,58.8,48.0,29.86,SE,138,0.0,0.0,67,0.00,,,0.00,WUHU216WMR968SP,2013-11-16 09:06:00,
2013-11-16 01:11:00,58.8,48.0,29.83,SE,138,0.0,0.0,67,0.00,,,0.00,WUHU216WMR968SP,2013-11-16 09:11:00,
2013-11-16 01:16:00,58.8,48.0,29.83,SE,133,0.0,0.0,67,0.00,,,0.00,WUHU216WMR968SP,2013-11-16 09:16:00,
2013-11-16 01:21:00,58.8,48.0,29.83,ESE,123,0.0,2.7,67,0.00,,,0.00,WUHU216WMR968SP,2013-11-16 09:21:00,
2013-11-16 01:26:00,58.8,48.0,29.83,ENE,75,0.0,2.7,67,0.00,,,0.00,WUHU216WMR968SP,2013-11-16 09:26:00,
2013-11-16 01:31:00,58.8,48.0,29.83,East,87,0.0,3.1,67,0.00,,,0.00,WUHU216WMR968SP,2013-11-16 09:31:00,
2013-11-16 01:36:00,59.0,48.2,29.83,East,84,0.0,3.1,67,0.00,,,0.00,WUHU216WMR968SP,2013-11-16 09:36:00,
2013-11-16 01:41:00,59.0,48.2,29.86,East,99,0.0,2.7,67,0.00,,,0.00,WUHU216WMR968SP,2013-11-16 09:41:00,
2013-11-16 01:46:00,59.0,48.2,29.86,East,87,2.2,2.7,67,0.00,,,0.00,WUHU216WMR968SP,2013-11-16 09:46:00,
2013-11-16 01:51:00,59.0,48.2,29.86,East,93,0.0,2.7,67,0.00,,,0.00,WUHU216WMR968SP,2013-11-16 09:51:00,
2013-11-16 01:56:00,59.0,48.2,29.83,East,88,0.0,3.1,67,0.00,,,0.00,WUHU216WMR968SP,2013-11-16 09:56:00,
2013-11-16 02:01:00,59.0,48.2,29.83,East,91,0.0,3.1,67,0.00,,,0.00,WUHU216WMR968SP,2013-11-16 10:01:00,
2013-11-16 02:06:00,58.8,48.0,29.83,ENE,78,0.0,3.1,67,0.00,,,0.00,WUHU216WMR968SP,2013-11-16 10:06:00,
2013-11-16 02:11:00,58.8,48.4,29.83,East,93,0.0,3.1,68,0.00,,,0.00,WUHU216WMR968SP,2013-11-16 10:11:00,
2013-11-16 02:16:00,58.8,48.4,29.83,East,95,0.0,3.1,68,0.00,,,0.00,WUHU216WMR968SP,2013-11-16 10:16:00,
2013-11-16 02:21:00,58.8,48.4,29.83,East,95,0.0,3.1,68,0.00,,,0.00,WUHU216WMR968SP,2013-11-16 10:21:00,
2013-11-16 02:26:00,58.8,48.4,29.83,East,95,0.0,0.0,68,0.00,,,0.00,WUHU216WMR968SP,2013-11-16 10:26:00,
2013-11-16 02:31:00,58.8,48.4,29.83,East,95,0.0,0.0,68,0.00,,,0.00,WUHU216WMR968SP,2013-11-16 10:31:00,
2013-11-16 02:36:00,58.8,48.4,29.83,East,95,0.0,0.0,68,0.00,,,0.00,WUHU216WMR968SP,2013-11-16 10:36:00,
2013-11-16 02:41:00,58.6,48.2,29.86,East,87,0.0,2.7,68,0.00,,,0.00,WUHU216WMR968SP,2013-11-16 10:41:00,
2013-11-16 02:46:00,58.6,48.2,29.86,East,85,0.0,3.6,68,0.00,,,0.00,WUHU216WMR968SP,2013-11-16 10:46:00,
2013-11-16 02:51:00,58.5,48.1,29.86,East,81,0.0,3.6,68,0.00,,,0.00,WUHU216WMR968SP,2013-11-16 10:51:00,
2013-11-16 02:56:00,58.5,48.1,29.86,ESE,114,0.0,0.0,68,0.00,,,0.00,WUHU216WMR968SP,2013-11-16 10:56:00,
2013-11-16 03:01:00,58.5,47.7,29.86,ESE,114,0.0,0.0,67,0.00,,,0.00,WUHU216WMR968SP,2013-11-16 11:01:00,
2013-11-16 03:06:00,58.3,47.5,29.86,ESE,114,0.0,0.0,67,0.00,,,0.00,WUHU216WMR968SP,2013-11-16 11:06:00,
2013-11-16 03:11:00,58.1,47.3,29.86,ESE,114,0.0,0.0,67,0.00,,,0.00,WUHU216WMR968SP,2013-11-16 11:11:00,
2013-11-16 03:16:00,58.1,47.3,29.86,ESE,113,0.0,0.0,67,0.00,,,0.00,WUHU216WMR968SP,2013-11-16 11:16:00,
2013-11-16 03:21:00,57.9,47.1,29.86,ESE,113,0.0,0.0,67,0.00,,,0.00,WUHU216WMR968SP,2013-11-16 11:21:00,
2013-11-16 03:26:00,57.9,47.5,29.86,ESE,113,0.0,0.0,68,0.00,,,0.00,WUHU216WMR968SP,2013-11-16 11:26:00,
2013-11-16 03:31:00,57.9,47.5,29.86,ESE,113,0.0,0.0,68,0.00,,,0.00,WUHU216WMR968SP,2013-11-16 11:31:00,
2013-11-16 03:36:00,58.1,47.3,29.86,ESE,113,0.0,0.0,67,0.00,,,0.00,WUHU216WMR968SP,2013-11-16 11:36:00,
2013-11-16 03:41:00,58.3,47.5,29.86,ESE,113,0.0,0.0,67,0.00,,,0.00,WUHU216WMR968SP,2013-11-16 11:41:00,
2013-11-16 03:46:00,58.3,47.5,29.86,ESE,113,0.0,0.0,67,0.00,,,0.00,WUHU216WMR968SP,2013-11-16 11:46:00,
2013-11-16 03:51:00,58.3,47.5,29.86,ESE,113,0.0,0.0,67,0.00,,,0.00,WUHU216WMR968SP,2013-11-16 11:51:00,
2013-11-16 03:56:00,58.3,47.5,29.86,ESE,113,0.0,0.0,67,0.00,,,0.00,WUHU216WMR968SP,2013-11-16 11:56:00,
2013-11-16 04:01:00,58.5,47.7,29.86,ESE,113,0.0,0.0,67,0.00,,,0.00,WUHU216WMR968SP,2013-11-16 12:01:00,
2013-11-16 04:06:00,58.5,47.7,29.86,ESE,113,0.0,0.0,67,0.00,,,0.00,WUHU216WMR968SP,2013-11-16 12:06:00,
2013-11-16 04:11:00,58.5,47.7,29.86,ESE,113,0.0,0.0,67,0.00,,,0.00,WUHU216WMR968SP,2013-11-16 12:11:00,
2013-11-16 04:16:00,58.5,47.7,29.86,ESE,104,2.2,3.6,67,0.00,,,0.00,WUHU216WMR968SP,2013-11-16 12:16:00,
2013-11-16 04:21:00,58.5,48.1,29.86,SE,142,4.0,4.0,68,0.00,,,0.00,WUHU216WMR968SP,2013-11-16 12:21:00,
2013-11-16 04:26:00,58.5,48.1,29.89,ESE,109,2.7,5.4,68,0.00,,,0.00,WUHU216WMR968SP,2013-11-16 12:26:00,
2013-11-16 04:31:00,58.6,48.2,29.89,SSE,159,0.0,5.4,68,0.00,,,0.00,WUHU216WMR968SP,2013-11-16 12:31:00,
2013-11-16 04:36:00,58.6,48.2,29.89,East,99,2.2,6.3,68,0.00,,,0.00,WUHU216WMR968SP,2013-11-16 12:36:00,
2013-11-16 04:41:00,58.5,48.1,29.86,ESE,110,0.0,6.3,68,0.00,,,0.00,WUHU216WMR968SP,2013-11-16 12:41:00,
2013-11-16 04:46:00,58.5,47.7,29.86,ESE,110,0.0,4.5,67,0.00,,,0.00,WUHU216WMR968SP,2013-11-16 12:46:00,
2013-11-16 04:51:00,58.3,47.9,29.86,SE,124,2.2,4.0,68,0.00,,,0.00,WUHU216WMR968SP,2013-11-16 12:51:00,
2013-11-16 04:56:00,58.3,47.9,29.89,ESE,120,0.0,5.4,68,0.00,,,0.00,WUHU216WMR968SP,2013-11-16 12:56:00,
2013-11-16 05:01:00,58.1,47.7,29.89,South,176,3.1,5.4,68,0.00,,,0.00,WUHU216WMR968SP,2013-11-16 13:01:00,
2013-11-16 05:06:00,58.1,47.7,29.89,ESE,114,0.0,4.9,68,0.00,,,0.00,WUHU216WMR968SP,2013-11-16 13:06:00,
2013-11-16 05:11:00,57.9,47.1,29.86,ESE,110,3.6,4.9,67,0.00,,,0.00,WUHU216WMR968SP,2013-11-16 13:11:00,
2013-11-16 05:16:00,57.9,47.1,29.86,ESE,119,2.2,4.9,67,0.00,,,0.00,WUHU216WMR968SP,2013-11-16 13:16:00,
2013-11-16 05:21:00,57.9,47.1,29.86,ESE,118,2.7,5.8,67,0.00,,,0.00,WUHU216WMR968SP,2013-11-16 13:21:00,
2013-11-16 05:26:00,57.7,47.0,29.89,ESE,116,0.0,5.8,67,0.00,,,0.00,WUHU216WMR968SP,2013-11-16 13:26:00,
2013-11-16 05:31:00,57.7,47.0,29.89,SSE,154,0.0,4.9,67,0.00,,,0.00,WUHU216WMR968SP,2013-11-16 13:31:00,
2013-11-16 05:36:00,57.7,47.0,29.89,SE,140,0.0,4.0,67,0.00,,,0.00,WUHU216WMR968SP,2013-11-16 13:36:00,
2013-11-16 05:41:00,57.6,46.9,29.89,SSW,193,0.0,4.0,67,0.00,,,0.00,WUHU216WMR968SP,2013-11-16 13:41:00,
2013-11-16 05:46:00,57.6,46.9,29.89,SE,131,0.0,3.6,67,0.00,,,0.00,WUHU216WMR968SP,2013-11-16 13:46:00,
2013-11-16 05:51:00,57.4,46.7,29.89,SSE,148,0.0,3.6,67,0.00,,,0.00,WUHU216WMR968SP,2013-11-16 13:51:00,
2013-11-16 05:56:00,57.2,46.1,29.89,ESE,115,0.0,3.1,66,0.00,,,0.00,WUHU216WMR968SP,2013-11-16 13:56:00,
2013-11-16 06:02:00,57.0,46.3,29.89,SE,146,0.0,4.0,67,0.00,,,0.00,WUHU216WMR968SP,2013-11-16 14:02:00,
2013-11-16 06:07:00,57.0,46.3,29.89,SE,146,0.0,4.0,67,0.00,,,0.00,WUHU216WMR968SP,2013-11-16 14:07:00,
2013-11-16 06:12:00,56.8,46.1,29.89,SE,145,0.0,3.1,67,0.00,,,0.00,WUHU216WMR968SP,2013-11-16 14:12:00,
2013-11-16 06:17:00,56.8,46.1,29.89,SE,145,0.0,0.0,67,0.00,,,0.00,WUHU216WMR968SP,2013-11-16 14:17:00,
2013-11-16 06:22:00,56.7,46.0,29.89,SE,145,0.0,0.0,67,0.00,,,0.00,WUHU216WMR968SP,2013-11-16 14:22:00,
2013-11-16 06:27:00,56.7,46.0,29.89,SE,145,0.0,0.0,67,0.00,,,0.00,WUHU216WMR968SP,2013-11-16 14:27:00,
2013-11-16 06:32:00,56.7,46.0,29.89,SE,145,0.0,0.0,67,0.00,,,0.00,WUHU216WMR968SP,2013-11-16 14:32:00,
2013-11-16 06:37:00,56.7,46.0,29.89,SE,145,0.0,0.0,67,0.00,,,0.00,WUHU216WMR968SP,2013-11-16 14:37:00,
2013-11-16 06:42:00,56.5,45.8,29.89,SE,145,0.0,0.0,67,0.00,,,0.00,WUHU216WMR968SP,2013-11-16 14:42:00,
2013-11-16 06:47:00,56.3,45.6,29.89,SE,128,0.0,0.0,67,0.00,,,0.00,WUHU216WMR968SP,2013-11-16 14:47:00,
2013-11-16 06:52:00,56.5,45.8,29.89,ESE,113,0.0,2.7,67,0.00,,,0.00,WUHU216WMR968SP,2013-11-16 14:52:00,
2013-11-16 06:57:00,56.7,46.0,29.89,ESE,113,2.2,3.6,67,0.00,,,0.00,WUHU216WMR968SP,2013-11-16 14:57:00,
2013-11-16 07:02:00,56.7,46.0,29.89,SSE,147,0.0,4.0,67,0.00,,,0.00,WUHU216WMR968SP,2013-11-16 15:02:00,
2013-11-16 07:07:00,56.8,46.1,29.89,ESE,117,0.0,4.0,67,0.00,,,0.00,WUHU216WMR968SP,2013-11-16 15:07:00,
2013-11-16 07:12:00,56.8,46.1,29.92,East,101,0.0,4.0,67,0.00,,,0.00,WUHU216WMR968SP,2013-11-16 15:12:00,
2013-11-16 07:17:00,57.0,46.3,29.92,East,101,0.0,0.0,67,0.00,,,0.00,WUHU216WMR968SP,2013-11-16 15:17:00,
2013-11-16 07:22:00,57.0,46.7,29.92,East,101,0.0,0.0,68,0.00,,,0.00,WUHU216WMR968SP,2013-11-16 15:22:00,
2013-11-16 07:27:00,57.2,46.5,29.92,East,86,2.2,3.6,67,0.00,,,0.00,WUHU216WMR968SP,2013-11-16 15:27:00,
2013-11-16 07:32:00,57.4,46.7,29.92,East,93,0.0,3.6,67,0.00,,,0.00,WUHU216WMR968SP,2013-11-16 15:32:00,
2013-11-16 07:37:00,57.9,47.5,29.92,East,89,2.2,3.6,68,0.00,,,0.00,WUHU216WMR968SP,2013-11-16 15:37:00,
2013-11-16 07:42:00,58.5,48.1,29.92,ESE,120,0.0,3.6,68,0.00,,,0.00,WUHU216WMR968SP,2013-11-16 15:42:00,
2013-11-16 07:47:00,59.0,48.6,29.92,East,90,0.0,3.1,68,0.00,,,0.00,WUHU216WMR968SP,2013-11-16 15:47:00,
2013-11-16 07:52:00,59.5,48.7,29.92,ESE,122,0.0,3.1,67,0.00,,,0.00,WUHU216WMR968SP,2013-11-16 15:52:00,
2013-11-16 07:57:00,60.1,49.3,29.92,ESE,106,0.0,3.6,67,0.00,,,0.00,WUHU216WMR968SP,2013-11-16 15:57:00,
2013-11-16 08:02:00,60.1,48.8,29.92,ESE,106,0.0,3.6,66,0.00,,,0.00,WUHU216WMR968SP,2013-11-16 16:02:00,
2013-11-16 08:07:00,60.4,49.1,29.92,SE,144,0.0,3.1,66,0.00,,,0.00,WUHU216WMR968SP,2013-11-16 16:07:00,
2013-11-16 08:12:00,60.6,48.9,29.92,SSE,163,0.0,3.1,65,0.00,,,0.00,WUHU216WMR968SP,2013-11-16 16:12:00,
2013-11-16 08:17:00,60.6,48.5,29.92,SW,214,3.1,5.8,64,0.00,,,0.00,WUHU216WMR968SP,2013-11-16 16:17:00,
2013-11-16 08:22:00,60.6,47.7,29.92,SSW,211,0.0,5.8,62,0.00,,,0.00,WUHU216WMR968SP,2013-11-16 16:22:00,
2013-11-16 08:27:00,60.6,47.2,29.95,SSW,197,3.6,4.9,61,0.00,,,0.00,WUHU216WMR968SP,2013-11-16 16:27:00,
2013-11-16 08:32:00,60.8,46.5,29.95,SSW,210,2.7,4.9,59,0.00,,,0.00,WUHU216WMR968SP,2013-11-16 16:32:00,
2013-11-16 08:37:00,61.0,46.2,29.95,ESE,118,0.0,4.5,58,0.00,,,0.00,WUHU216WMR968SP,2013-11-16 16:37:00,
2013-11-16 08:42:00,61.0,45.8,29.95,ESE,109,2.2,4.0,57,0.00,,,0.00,WUHU216WMR968SP,2013-11-16 16:42:00,
2013-11-16 08:47:00,61.2,46.0,29.95,ESE,117,3.1,4.9,57,0.00,,,0.00,WUHU216WMR968SP,2013-11-16 16:47:00,
2013-11-16 08:52:00,61.3,45.6,29.95,SE,138,0.0,4.9,56,0.00,,,0.00,WUHU216WMR968SP,2013-11-16 16:52:00,
2013-11-16 08:57:00,61.3,45.6,29.95,SE,139,4.0,5.4,56,0.00,,,0.00,WUHU216WMR968SP,2013-11-16 16:57:00,
2013-11-16 09:02:00,61.3,45.1,29.95,ESE,120,3.1,5.4,55,0.00,,,0.00,WUHU216WMR968SP,2013-11-16 17:02:00,
2013-11-16 09:07:00,61.3,45.1,29.95,SW,233,4.0,6.3,55,0.00,,,0.00,WUHU216WMR968SP,2013-11-16 17:07:00,
2013-11-16 09:12:00,61.3,45.1,29.95,SSE,163,3.6,6.3,55,0.00,,,0.00,WUHU216WMR968SP,2013-11-16 17:12:00,
2013-11-16 09:17:00,61.5,45.3,29.95,SSW,204,0.0,6.3,55,0.00,,,0.00,WUHU216WMR968SP,2013-11-16 17:17:00,
2013-11-16 09:22:00,61.7,45.5,29.95,SSW,199,0.0,4.0,55,0.00,,,0.00,WUHU216WMR968SP,2013-11-16 17:22:00,
2013-11-16 09:27:00,61.9,45.6,29.95,SSW,195,0.0,0.0,55,0.00,,,0.00,WUHU216WMR968SP,2013-11-16 17:27:00,
2013-11-16 09:32:00,61.7,45.0,29.95,South,190,0.0,0.0,54,0.00,,,0.00,WUHU216WMR968SP,2013-11-16 17:32:00,
2013-11-16 09:37:00,61.9,45.1,29.95,South,179,0.0,0.0,54,0.00,,,0.00,WUHU216WMR968SP,2013-11-16 17:37:00,
2013-11-16 09:42:00,62.1,45.3,29.95,SSW,200,0.0,0.0,54,0.00,,,0.00,WUHU216WMR968SP,2013-11-16 17:42:00,
2013-11-16 09:47:00,62.2,45.4,29.95,SW,226,0.0,0.0,54,0.00,,,0.00,WUHU216WMR968SP,2013-11-16 17:47:00,
2013-11-16 09:52:00,62.1,45.3,29.95,SSW,207,0.0,0.0,54,0.00,,,0.00,WUHU216WMR968SP,2013-11-16 17:52:00,
2013-11-16 09:57:00,62.1,45.3,29.95,SW,215,0.0,0.0,54,0.00,,,0.00,WUHU216WMR968SP,2013-11-16 17:57:00,
2013-11-16 10:02:00,62.4,45.6,29.95,SSE,165,0.0,0.0,54,0.00,,,0.00,WUHU216WMR968SP,2013-11-16 18:02:00,
2013-11-16 10:07:00,62.8,45.5,29.95,SW,214,0.0,0.0,53,0.00,,,0.00,WUHU216WMR968SP,2013-11-16 18:07:00,
2013-11-16 10:12:00,63.3,45.9,29.95,SSE,167,0.0,0.0,53,0.00,,,0.00,WUHU216WMR968SP,2013-11-16 18:12:00,
2013-11-16 10:17:00,63.7,46.3,29.95,South,182,0.0,0.0,53,0.00,,,0.00,WUHU216WMR968SP,2013-11-16 18:17:00,
2013-11-16 10:22:00,64.0,46.6,29.95,ESE,118,0.0,0.0,53,0.00,,,0.00,WUHU216WMR968SP,2013-11-16 18:22:00,
2013-11-16 10:27:00,64.2,45.7,29.95,South,169,0.0,0.0,51,0.00,,,0.00,WUHU216WMR968SP,2013-11-16 18:27:00,
2013-11-16 10:32:00,64.2,45.7,29.95,SSW,199,0.0,0.0,51,0.00,,,0.00,WUHU216WMR968SP,2013-11-16 18:32:00,
2013-11-16 10:37:00,64.4,45.4,29.95,SE,124,0.0,0.0,50,0.00,,,0.00,WUHU216WMR968SP,2013-11-16 18:37:00,
2013-11-16 10:42:00,64.6,45.6,29.95,South,180,0.0,0.0,50,0.00,,,0.00,WUHU216WMR968SP,2013-11-16 18:42:00,
2013-11-16 10:47:00,64.6,45.6,29.95,SSW,210,0.0,0.0,50,0.00,,,0.00,WUHU216WMR968SP,2013-11-16 18:47:00,
2013-11-16 10:52:00,64.8,45.8,29.95,South,172,0.0,0.0,50,0.00,,,0.00,WUHU216WMR968SP,2013-11-16 18:52:00,
2013-11-16 10:57:00,65.1,46.0,29.95,SW,228,0.0,0.0,50,0.00,,,0.00,WUHU216WMR968SP,2013-11-16 18:57:00,
2013-11-16 11:02:00,65.5,46.4,29.95,South,182,4.5,5.8,50,0.00,,,0.00,WUHU216WMR968SP,2013-11-16 19:02:00,
2013-11-16 11:07:00,65.8,46.7,29.95,SSW,199,4.0,7.6,50,0.00,,,0.00,WUHU216WMR968SP,2013-11-16 19:07:00,
2013-11-16 11:12:00,65.8,45.6,29.95,SW,217,2.7,7.6,48,0.00,,,0.00,WUHU216WMR968SP,2013-11-16 19:12:00,
2013-11-16 11:17:00,65.8,45.6,29.95,East,88,4.0,7.6,48,0.00,,,0.00,WUHU216WMR968SP,2013-11-16 19:17:00,
2013-11-16 11:22:00,66.0,45.7,29.95,SSW,207,0.0,7.6,48,0.00,,,0.00,WUHU216WMR968SP,2013-11-16 19:22:00,
2013-11-16 11:27:00,66.2,45.4,29.95,SSW,213,3.1,8.1,47,0.00,,,0.00,WUHU216WMR968SP,2013-11-16 19:27:00,
2013-11-16 11:32:00,66.2,45.4,29.95,South,179,5.4,8.1,47,0.00,,,0.00,WUHU216WMR968SP,2013-11-16 19:32:00,
2013-11-16 11:37:00,66.6,45.7,29.95,SSW,204,4.5,7.6,47,0.00,,,0.00,WUHU216WMR968SP,2013-11-16 19:37:00,
2013-11-16 11:42:00,66.9,46.0,29.92,East,86,3.6,7.6,47,0.00,,,0.00,WUHU216WMR968SP,2013-11-16 19:42:00,
2013-11-16 11:47:00,67.1,46.2,29.92,SE,138,4.0,6.3,47,0.00,,,0.00,WUHU216WMR968SP,2013-11-16 19:47:00,
2013-11-16 11:52:00,67.1,46.2,29.92,ENE,64,3.6,6.3,47,0.00,,,0.00,WUHU216WMR968SP,2013-11-16 19:52:00,
2013-11-16 11:57:00,67.3,46.4,29.92,South,178,3.1,6.3,47,0.00,,,0.00,WUHU216WMR968SP,2013-11-16 19:57:00,
2013-11-16 12:02:00,67.6,46.6,29.92,SW,231,7.2,8.7,47,0.00,,,0.00,WUHU216WMR968SP,2013-11-16 20:02:00,
2013-11-16 12:07:00,67.5,46.6,29.92,South,179,2.7,8.7,47,0.00,,,0.00,WUHU216WMR968SP,2013-11-16 20:07:00,
2013-11-16 12:12:00,67.1,46.2,29.92,South,189,4.0,8.7,47,0.00,,,0.00,WUHU216WMR968SP,2013-11-16 20:12:00,
2013-11-16 12:17:00,66.7,45.8,29.92,SSW,200,3.1,7.6,47,0.00,,,0.00,WUHU216WMR968SP,2013-11-16 20:17:00,
2013-11-16 12:22:00,66.7,45.8,29.92,WSW,255,4.0,8.3,47,0.00,,,0.00,WUHU216WMR968SP,2013-11-16 20:22:00,
2013-11-16 12:27:00,66.4,45.5,29.92,SSW,193,3.1,10.1,47,0.00,,,0.00,WUHU216WMR968SP,2013-11-16 20:27:00,
2013-11-16 12:32:00,66.4,45.5,29.92,SSE,155,5.4,10.1,47,0.00,,,0.00,WUHU216WMR968SP,2013-11-16 20:32:00,
2013-11-16 12:37:00,66.4,45.5,29.92,East,82,3.1,7.6,47,0.00,,,0.00,WUHU216WMR968SP,2013-11-16 20:37:00,
2013-11-16 12:42:00,66.4,45.5,29.92,SE,138,4.5,6.3,47,0.00,,,0.00,WUHU216WMR968SP,2013-11-16 20:42:00,
2013-11-16 12:47:00,66.4,45.5,29.92,SW,220,4.5,6.3,47,0.00,,,0.00,WUHU216WMR968SP,2013-11-16 20:47:00,
2013-11-16 12:52:00,66.2,45.4,29.92,South,172,2.2,6.3,47,0.00,,,0.00,WUHU216WMR968SP,2013-11-16 20:52:00,
2013-11-16 12:57:00,66.0,45.7,29.92,SSW,212,4.5,8.7,48,0.00,,,0.00,WUHU216WMR968SP,2013-11-16 20:57:00,
2013-11-16 13:02:00,65.8,45.6,29.92,SSW,211,3.1,8.7,48,0.00,,,0.00,WUHU216WMR968SP,2013-11-16 21:02:00,
2013-11-16 13:07:00,65.7,45.5,29.92,SW,224,3.1,7.6,48,0.00,,,0.00,WUHU216WMR968SP,2013-11-16 21:07:00,
2013-11-16 13:12:00,65.5,45.3,29.92,SE,126,3.6,7.6,48,0.00,,,0.00,WUHU216WMR968SP,2013-11-16 21:12:00,
2013-11-16 13:17:00,65.3,45.1,29.92,ESE,122,2.7,6.3,48,0.00,,,0.00,WUHU216WMR968SP,2013-11-16 21:17:00,
2013-11-16 13:22:00,65.1,44.9,29.92,SSW,199,4.9,5.8,48,0.00,,,0.00,WUHU216WMR968SP,2013-11-16 21:22:00,
2013-11-16 13:27:00,64.8,44.6,29.92,SSW,202,2.7,5.8,48,0.00,,,0.00,WUHU216WMR968SP,2013-11-16 21:27:00,
2013-11-16 13:32:00,64.8,44.6,29.92,SSW,194,5.4,6.3,48,0.00,,,0.00,WUHU216WMR968SP,2013-11-16 21:32:00,
2013-11-16 13:37:00,64.4,44.3,29.92,SSW,193,4.0,6.3,48,0.00,,,0.00,WUHU216WMR968SP,2013-11-16 21:37:00,
2013-11-16 13:42:00,64.2,44.1,29.89,SSW,198,3.6,5.8,48,0.00,,,0.00,WUHU216WMR968SP,2013-11-16 21:42:00,
2013-11-16 13:47:00,64.2,44.1,29.89,SE,139,3.1,6.3,48,0.00,,,0.00,WUHU216WMR968SP,2013-11-16 21:47:00,
2013-11-16 13:52:00,63.9,43.8,29.89,South,183,4.5,6.7,48,0.00,,,0.00,WUHU216WMR968SP,2013-11-16 21:52:00,
2013-11-16 13:57:00,63.7,43.6,29.92,WSW,237,3.1,6.7,48,0.00,,,0.00,WUHU216WMR968SP,2013-11-16 21:57:00,
2013-11-16 14:02:00,63.5,43.4,29.92,SSW,208,0.0,6.3,48,0.00,,,0.00,WUHU216WMR968SP,2013-11-16 22:02:00,
2013-11-16 14:07:00,63.5,43.4,29.92,WNW,287,2.2,5.8,48,0.00,,,0.00,WUHU216WMR968SP,2013-11-16 22:07:00,
2013-11-16 14:12:00,63.1,43.1,29.92,SW,219,4.0,8.1,48,0.00,,,0.00,WUHU216WMR968SP,2013-11-16 22:12:00,
2013-11-16 14:17:00,63.1,43.1,29.92,South,171,4.0,8.1,48,0.00,,,0.00,WUHU216WMR968SP,2013-11-16 22:17:00,
2013-11-16 14:22:00,63.3,43.3,29.92,WSW,242,3.6,5.8,48,0.00,,,0.00,WUHU216WMR968SP,2013-11-16 22:22:00,
2013-11-16 14:27:00,63.3,43.3,29.92,WSW,245,2.2,6.3,48,0.00,,,0.00,WUHU216WMR968SP,2013-11-16 22:27:00,
2013-11-16 14:32:00,63.3,43.3,29.92,SSE,156,2.7,6.3,48,0.00,,,0.00,WUHU216WMR968SP,2013-11-16 22:32:00,
2013-11-16 14:37:00,63.5,43.4,29.92,SSW,199,3.6,6.3,48,0.00,,,0.00,WUHU216WMR968SP,2013-11-16 22:37:00,
2013-11-16 14:42:00,63.7,43.6,29.92,SSW,205,4.0,5.8,48,0.00,,,0.00,WUHU216WMR968SP,2013-11-16 22:42:00,
2013-11-16 14:47:00,63.9,43.8,29.92,South,180,0.0,5.8,48,0.00,,,0.00,WUHU216WMR968SP,2013-11-16 22:47:00,
2013-11-16 14:52:00,64.0,43.9,29.92,NE,50,0.0,5.4,48,0.00,,,0.00,WUHU216WMR968SP,2013-11-16 22:52:00,
2013-11-16 14:57:00,64.2,44.1,29.92,SE,144,0.0,0.0,48,0.00,,,0.00,WUHU216WMR968SP,2013-11-16 22:57:00,
2013-11-16 15:02:00,64.2,44.1,29.92,SW,229,0.0,0.0,48,0.00,,,0.00,WUHU216WMR968SP,2013-11-16 23:02:00,
2013-11-16 15:07:00,64.2,44.1,29.92,South,185,0.0,0.0,48,0.00,,,0.00,WUHU216WMR968SP,2013-11-16 23:07:00,
2013-11-16 15:12:00,64.2,44.1,29.89,SW,216,0.0,0.0,48,0.00,,,0.00,WUHU216WMR968SP,2013-11-16 23:12:00,
2013-11-16 15:17:00,64.0,43.9,29.89,WSW,242,0.0,0.0,48,0.00,,,0.00,WUHU216WMR968SP,2013-11-16 23:17:00,
2013-11-16 15:22:00,63.7,43.6,29.89,WSW,243,0.0,0.0,48,0.00,,,0.00,WUHU216WMR968SP,2013-11-16 23:22:00,
2013-11-16 15:27:00,63.3,43.3,29.89,WSW,243,0.0,0.0,48,0.00,,,0.00,WUHU216WMR968SP,2013-11-16 23:27:00,
2013-11-16 15:32:00,63.1,43.1,29.89,SSW,203,0.0,0.0,48,0.00,,,0.00,WUHU216WMR968SP,2013-11-16 23:32:00,
2013-11-16 15:37:00,63.0,43.0,29.89,SSE,158,0.0,0.0,48,0.00,,,0.00,WUHU216WMR968SP,2013-11-16 23:37:00,
2013-11-16 15:42:00,62.8,42.8,29.89,South,176,0.0,0.0,48,0.00,,,0.00,WUHU216WMR968SP,2013-11-16 23:42:00,
2013-11-16 15:47:00,62.8,42.8,29.89,South,174,0.0,0.0,48,0.00,,,0.00,WUHU216WMR968SP,2013-11-16 23:47:00,
2013-11-16 15:52:00,62.6,42.6,29.89,SSE,147,0.0,0.0,48,0.00,,,0.00,WUHU216WMR968SP,2013-11-16 23:52:00,
2013-11-16 15:57:00,62.6,42.6,29.92,SSW,203,0.0,0.0,48,0.00,,,0.00,WUHU216WMR968SP,2013-11-16 23:57:00,
2013-11-16 16:02:00,62.6,42.6,29.92,SW,230,0.0,0.0,48,0.00,,,0.00,WUHU216WMR968SP,2013-11-17 00:02:00,
2013-11-16 16:07:00,62.4,43.0,29.92,WSW,239,0.0,0.0,49,0.00,,,0.00,WUHU216WMR968SP,2013-11-17 00:07:00,
2013-11-16 16:12:00,62.4,43.0,29.92,SSW,193,0.0,0.0,49,0.00,,,0.00,WUHU216WMR968SP,2013-11-17 00:12:00,
2013-11-16 16:17:00,62.2,42.8,29.92,South,174,0.0,0.0,49,0.00,,,0.00,WUHU216WMR968SP,2013-11-17 00:17:00,
2013-11-16 16:22:00,62.2,42.8,29.92,SW,221,0.0,0.0,49,0.00,,,0.00,WUHU216WMR968SP,2013-11-17 00:22:00,
2013-11-16 16:27:00,62.2,42.8,29.92,SW,222,0.0,0.0,49,0.00,,,0.00,WUHU216WMR968SP,2013-11-17 00:27:00,
2013-11-16 16:32:00,62.1,42.7,29.92,SW,227,0.0,0.0,49,0.00,,,0.00,WUHU216WMR968SP,2013-11-17 00:32:00,
2013-11-16 16:38:00,62.1,42.7,29.92,SSW,210,0.0,0.0,49,0.00,,,0.00,WUHU216WMR968SP,2013-11-17 00:38:00,
2013-11-16 16:43:00,62.1,42.7,29.92,South,191,0.0,0.0,49,0.00,,,0.00,WUHU216WMR968SP,2013-11-17 00:43:00,
2013-11-16 16:48:00,61.9,42.5,29.92,SW,218,0.0,0.0,49,0.00,,,0.00,WUHU216WMR968SP,2013-11-17 00:48:00,
2013-11-16 16:53:00,61.7,42.3,29.92,SSW,198,0.0,0.0,49,0.00,,,0.00,WUHU216WMR968SP,2013-11-17 00:53:00,
2013-11-16 16:58:00,61.7,42.3,29.92,South,175,0.0,0.0,49,0.00,,,0.00,WUHU216WMR968SP,2013-11-17 00:58:00,
2013-11-16 17:03:00,61.7,42.3,29.92,SSW,208,0.0,0.0,49,0.00,,,0.00,WUHU216WMR968SP,2013-11-17 01:03:00,
2013-11-16 17:08:00,61.5,42.2,29.92,WSW,257,0.0,0.0,49,0.00,,,0.00,WUHU216WMR968SP,2013-11-17 01:08:00,
2013-11-16 17:13:00,61.3,42.0,29.92,WSW,251,0.0,0.0,49,0.00,,,0.00,WUHU216WMR968SP,2013-11-17 01:13:00,
2013-11-16 17:18:00,61.3,42.0,29.92,South,185,0.0,0.0,49,0.00,,,0.00,WUHU216WMR968SP,2013-11-17 01:18:00,
2013-11-16 17:23:00,61.2,41.9,29.92,WSW,244,0.0,0.0,49,0.00,,,0.00,WUHU216WMR968SP,2013-11-17 01:23:00,
2013-11-16 17:28:00,61.2,41.9,29.92,South,177,0.0,0.0,49,0.00,,,0.00,WUHU216WMR968SP,2013-11-17 01:28:00,
2013-11-16 17:33:00,61.3,42.0,29.92,SSE,154,0.0,0.0,49,0.00,,,0.00,WUHU216WMR968SP,2013-11-17 01:33:00,
2013-11-16 17:38:00,61.2,41.9,29.92,SW,230,0.0,0.0,49,0.00,,,0.00,WUHU216WMR968SP,2013-11-17 01:38:00,
2013-11-16 17:43:00,61.2,41.9,29.95,WSW,242,0.0,0.0,49,0.00,,,0.00,WUHU216WMR968SP,2013-11-17 01:43:00,
2013-11-16 17:48:00,61.0,41.7,29.95,SSW,194,0.0,0.0,49,0.00,,,0.00,WUHU216WMR968SP,2013-11-17 01:48:00,
2013-11-16 17:53:00,61.0,41.7,29.95,SSW,209,0.0,0.0,49,0.00,,,0.00,WUHU216WMR968SP,2013-11-17 01:53:00,
2013-11-16 17:58:00,61.0,41.7,29.95,South,185,0.0,0.0,49,0.00,,,0.00,WUHU216WMR968SP,2013-11-17 01:58:00,
2013-11-16 18:03:00,61.0,41.7,29.95,SSW,204,0.0,0.0,49,0.00,,,0.00,WUHU216WMR968SP,2013-11-17 02:03:00,
2013-11-16 18:08:00,61.0,41.7,29.95,SSW,211,0.0,0.0,49,0.00,,,0.00,WUHU216WMR968SP,2013-11-17 02:08:00,
2013-11-16 18:13:00,60.8,41.5,29.95,South,187,0.0,0.0,49,0.00,,,0.00,WUHU216WMR968SP,2013-11-17 02:13:00,
2013-11-16 18:18:00,60.8,41.5,29.95,South,170,0.0,0.0,49,0.00,,,0.00,WUHU216WMR968SP,2013-11-17 02:18:00,
2013-11-16 18:23:00,60.6,41.3,29.95,South,182,0.0,0.0,49,0.00,,,0.00,WUHU216WMR968SP,2013-11-17 02:23:00,
2013-11-16 18:28:00,60.6,41.3,29.95,SE,135,0.0,0.0,49,0.00,,,0.00,WUHU216WMR968SP,2013-11-17 02:28:00,
2013-11-16 18:33:00,60.6,41.3,29.95,SSW,206,0.0,0.0,49,0.00,,,0.00,WUHU216WMR968SP,2013-11-17 02:33:00,
2013-11-16 18:38:00,60.6,41.3,29.95,ESE,120,0.0,0.0,49,0.00,,,0.00,WUHU216WMR968SP,2013-11-17 02:38:00,
2013-11-16 18:43:00,60.4,42.7,29.95,SSW,198,0.0,0.0,52,0.00,,,0.00,WUHU216WMR968SP,2013-11-17 02:43:00,
2013-11-16 18:48:00,60.4,42.7,29.95,SSE,164,0.0,0.0,52,0.00,,,0.00,WUHU216WMR968SP,2013-11-17 02:48:00,
2013-11-16 18:53:00,60.4,42.7,29.95,SSW,198,0.0,0.0,52,0.00,,,0.00,WUHU216WMR968SP,2013-11-17 02:53:00,
2013-11-16 18:58:00,60.4,42.7,29.98,South,182,0.0,0.0,52,0.00,,,0.00,WUHU216WMR968SP,2013-11-17 02:58:00,
2013-11-16 19:03:00,60.4,42.7,29.98,SW,223,0.0,0.0,52,0.00,,,0.00,WUHU216WMR968SP,2013-11-17 03:03:00,
2013-11-16 19:08:00,60.4,42.7,29.98,South,172,0.0,0.0,52,0.00,,,0.00,WUHU216WMR968SP,2013-11-17 03:08:00,
2013-11-16 19:13:00,60.4,42.7,29.98,SSW,207,0.0,0.0,52,0.00,,,0.00,WUHU216WMR968SP,2013-11-17 03:13:00,
2013-11-16 19:18:00,60.4,42.7,29.98,SSW,206,0.0,0.0,52,0.00,,,0.00,WUHU216WMR968SP,2013-11-17 03:18:00,
2013-11-16 19:23:00,60.4,42.7,29.98,South,177,0.0,0.0,52,0.00,,,0.00,WUHU216WMR968SP,2013-11-17 03:23:00,
2013-11-16 19:28:00,60.4,42.7,29.98,SSW,200,0.0,0.0,52,0.00,,,0.00,WUHU216WMR968SP,2013-11-17 03:28:00,
2013-11-16 19:33:00,60.4,42.7,29.98,SSW,200,0.0,0.0,52,0.00,,,0.00,WUHU216WMR968SP,2013-11-17 03:33:00,
2013-11-16 19:38:00,60.4,42.7,29.98,SSW,200,0.0,0.0,52,0.00,,,0.00,WUHU216WMR968SP,2013-11-17 03:38:00,
2013-11-16 19:43:00,60.4,42.7,29.98,SSE,160,0.0,0.0,52,0.00,,,0.00,WUHU216WMR968SP,2013-11-17 03:43:00,
2013-11-16 19:48:00,60.6,42.9,29.98,SSE,159,0.0,0.0,52,0.00,,,0.00,WUHU216WMR968SP,2013-11-17 03:48:00,
2013-11-16 19:53:00,60.4,42.7,29.98,SSE,159,0.0,0.0,52,0.00,,,0.00,WUHU216WMR968SP,2013-11-17 03:53:00,
2013-11-16 19:58:00,60.4,42.7,29.98,SW,230,0.0,0.0,52,0.00,,,0.00,WUHU216WMR968SP,2013-11-17 03:58:00,
2013-11-16 20:03:00,60.3,42.6,29.98,ESE,112,0.0,0.0,52,0.00,,,0.00,WUHU216WMR968SP,2013-11-17 04:03:00,
2013-11-16 20:08:00,60.3,43.7,29.98,SSE,159,0.0,0.0,54,0.00,,,0.00,WUHU216WMR968SP,2013-11-17 04:08:00,
2013-11-16 20:13:00,60.3,43.7,29.98,South,189,0.0,0.0,54,0.00,,,0.00,WUHU216WMR968SP,2013-11-17 04:13:00,
2013-11-16 20:18:00,60.1,43.5,29.98,SSW,204,0.0,0.0,54,0.00,,,0.00,WUHU216WMR968SP,2013-11-17 04:18:00,
2013-11-16 20:23:00,60.1,43.5,29.98,SSW,212,0.0,0.0,54,0.00,,,0.00,WUHU216WMR968SP,2013-11-17 04:23:00,
2013-11-16 20:28:00,59.9,43.3,29.98,SSW,212,0.0,0.0,54,0.00,,,0.00,WUHU216WMR968SP,2013-11-17 04:28:00,
2013-11-16 20:33:00,59.7,43.1,29.98,WSW,256,0.0,0.0,54,0.00,,,0.00,WUHU216WMR968SP,2013-11-17 04:33:00,
2013-11-16 20:38:00,59.4,42.8,29.98,WSW,252,0.0,0.0,54,0.00,,,0.00,WUHU216WMR968SP,2013-11-17 04:38:00,
2013-11-16 20:43:00,59.2,42.6,29.98,WSW,252,0.0,0.0,54,0.00,,,0.00,WUHU216WMR968SP,2013-11-17 04:43:00,
2013-11-16 20:48:00,59.2,42.6,29.98,WSW,253,0.0,0.0,54,0.00,,,0.00,WUHU216WMR968SP,2013-11-17 04:48:00,
2013-11-16 20:53:00,59.0,42.4,29.98,WSW,253,0.0,0.0,54,0.00,,,0.00,WUHU216WMR968SP,2013-11-17 04:53:00,
2013-11-16 20:58:00,58.8,42.7,29.98,WSW,252,0.0,0.0,55,0.00,,,0.00,WUHU216WMR968SP,2013-11-17 04:58:00,
2013-11-16 21:03:00,58.1,42.1,29.98,WSW,253,0.0,0.0,55,0.00,,,0.00,WUHU216WMR968SP,2013-11-17 05:03:00,
2013-11-16 21:08:00,57.6,41.6,29.98,WSW,253,0.0,0.0,55,0.00,,,0.00,WUHU216WMR968SP,2013-11-17 05:08:00,
2013-11-16 21:13:00,57.4,41.4,30.01,WSW,252,0.0,0.0,55,0.00,,,0.00,WUHU216WMR968SP,2013-11-17 05:13:00,
2013-11-16 21:18:00,57.4,41.9,30.01,WSW,252,0.0,0.0,56,0.00,,,0.00,WUHU216WMR968SP,2013-11-17 05:18:00,
2013-11-16 21:23:00,57.6,42.1,30.01,WSW,252,0.0,0.0,56,0.00,,,0.00,WUHU216WMR968SP,2013-11-17 05:23:00,
2013-11-16 21:28:00,57.6,42.1,30.01,WNW,303,0.0,0.0,56,0.00,,,0.00,WUHU216WMR968SP,2013-11-17 05:28:00,
2013-11-16 21:33:00,57.6,42.1,30.01,North,349,0.0,0.0,56,0.00,,,0.00,WUHU216WMR968SP,2013-11-17 05:33:00,
2013-11-16 21:38:00,57.6,42.1,30.01,NE,52,0.0,0.0,56,0.00,,,0.00,WUHU216WMR968SP,2013-11-17 05:38:00,
2013-11-16 21:43:00,57.6,42.1,30.01,NE,52,0.0,0.0,56,0.00,,,0.00,WUHU216WMR968SP,2013-11-17 05:43:00,
2013-11-16 21:48:00,57.6,42.1,30.01,NE,52,0.0,0.0,56,0.00,,,0.00,WUHU216WMR968SP,2013-11-17 05:48:00,
2013-11-16 21:53:00,57.4,41.9,30.01,NE,52,0.0,0.0,56,0.00,,,0.00,WUHU216WMR968SP,2013-11-17 05:53:00,
2013-11-16 21:58:00,57.2,41.7,30.01,NE,52,0.0,0.0,56,0.00,,,0.00,WUHU216WMR968SP,2013-11-17 05:58:00,
2013-11-16 22:03:00,57.2,41.7,30.01,NE,52,0.0,0.0,56,0.00,,,0.00,WUHU216WMR968SP,2013-11-17 06:03:00,
2013-11-16 22:08:00,57.0,41.5,30.01,NE,52,0.0,0.0,56,0.00,,,0.00,WUHU216WMR968SP,2013-11-17 06:08:00,
2013-11-16 22:13:00,56.8,41.3,30.01,NE,52,0.0,0.0,56,0.00,,,0.00,WUHU216WMR968SP,2013-11-17 06:13:00,
2013-11-16 22:18:00,56.8,41.8,30.01,NE,52,0.0,0.0,57,0.00,,,0.00,WUHU216WMR968SP,2013-11-17 06:18:00,
2013-11-16 22:23:00,56.7,41.7,30.01,NE,52,0.0,0.0,57,0.00,,,0.00,WUHU216WMR968SP,2013-11-17 06:23:00,
2013-11-16 22:28:00,56.5,41.5,30.01,NE,52,0.0,0.0,57,0.00,,,0.00,WUHU216WMR968SP,2013-11-17 06:28:00,
2013-11-16 22:33:00,56.3,41.3,30.01,NE,52,0.0,0.0,57,0.00,,,0.00,WUHU216WMR968SP,2013-11-17 06:33:00,
2013-11-16 22:38:00,56.3,41.3,30.01,NE,52,0.0,0.0,57,0.00,,,0.00,WUHU216WMR968SP,2013-11-17 06:38:00,
2013-11-16 22:43:00,56.5,41.5,30.01,NE,52,0.0,0.0,57,0.00,,,0.00,WUHU216WMR968SP,2013-11-17 06:43:00,
2013-11-16 22:48:00,56.7,41.7,30.01,NE,52,0.0,0.0,57,0.00,,,0.00,WUHU216WMR968SP,2013-11-17 06:48:00,
2013-11-16 22:53:00,56.7,41.7,30.01,NE,52,0.0,0.0,57,0.00,,,0.00,WUHU216WMR968SP,2013-11-17 06:53:00,
2013-11-16 22:58:00,56.8,41.8,30.01,NE,52,0.0,0.0,57,0.00,,,0.00,WUHU216WMR968SP,2013-11-17 06:58:00,
2013-11-16 23:03:00,57.0,42.0,30.01,NE,52,0.0,0.0,57,0.00,,,0.00,WUHU216WMR968SP,2013-11-17 07:03:00,
2013-11-16 23:08:00,57.2,42.2,30.01,NE,52,0.0,0.0,57,0.00,,,0.00,WUHU216WMR968SP,2013-11-17 07:08:00,
2013-11-16 23:13:00,57.2,42.2,30.01,NE,52,0.0,0.0,57,0.00,,,0.00,WUHU216WMR968SP,2013-11-17 07:13:00,
2013-11-16 23:18:00,57.4,41.9,30.01,NE,52,0.0,0.0,56,0.00,,,0.00,WUHU216WMR968SP,2013-11-17 07:18:00,
2013-11-16 23:23:00,57.6,42.1,30.01,NE,52,0.0,0.0,56,0.00,,,0.00,WUHU216WMR968SP,2013-11-17 07:23:00,
2013-11-16 23:28:00,57.6,42.1,30.01,NE,52,0.0,0.0,56,0.00,,,0.00,WUHU216WMR968SP,2013-11-17 07:28:00,
2013-11-16 23:34:00,57.6,42.1,30.01,NE,52,0.0,0.0,56,0.00,,,0.00,WUHU216WMR968SP,2013-11-17 07:34:00,
2013-11-16 23:39:00,57.6,42.1,30.01,NE,52,0.0,0.0,56,0.00,,,0.00,WUHU216WMR968SP,2013-11-17 07:39:00,
2013-11-16 23:44:00,57.6,42.1,30.01,NE,52,0.0,0.0,56,0.00,,,0.00,WUHU216WMR968SP,2013-11-17 07:44:00,
2013-11-16 23:49:00,57.6,42.1,30.01,NE,52,0.0,0.0,56,0.00,,,0.00,WUHU216WMR968SP,2013-11-17 07:49:00,
2013-11-16 23:54:00,57.6,42.1,30.01,NE,52,0.0,0.0,56,0.00,,,0.00,WUHU216WMR968SP,2013-11-17 07:54:00,
2013-11-16 23:59:00,57.4,41.9,30.01,NE,52,0.0,0.0,56,0.00,,,0.00,WUHU216WMR968SP,2013-11-17 07:59:00,